Noonan, North Dakota
Current Conditions -  °F | °C
As of 3:55 PM on Thursday 27 Nov 2014 (Local Time) from KD50 Reporting Station
Moderate Snow Moderate Snow  
Wind Chill:   Ceiling: 100
Heat Index: 19°   Visibility: 0.5mi
Dew Point: 19°   Wind: 16mph
Humidity: 100%   Direction: 80°E
Pressure: 29.92"   Gusts: NA
Location:  48.89°N, 103.01°W
Report Text: KD50 272155Z AUTO 08014KT 1/2SM SN OVC001 M07/M07 A2992 RMK AO2 P0012
Loading
Personal Weather Stations






























Interactive Weather Map New forecast layout! Learn more

10-Day Weather Forecast

Advertisements
Track Severe Weather on mobile